Sharonville, Ohio
Current Conditions -  °F | °C
As of 8:53 PM on Saturday 25 Oct 2014 (Local Time) from KHAO Reporting Station
Clear Clear  
Wind Chill: 60°   Ceiling: Unl
Heat Index: 60°   Visibility: 10mi
Dew Point: 52°   Wind: 5mph
Humidity: 75%   Direction: 250°WSW
Pressure: 29.9"   Gusts: NA
Location:  39.27°N, 84.41°W
Report Text: KHAO 260053Z AUTO 25004KT 10SM CLR 16/11 A2990 RMK AO2 SLP124 T01560111
Loading
Personal Weather Stations






























Interactive Weather Map
Tropical Storm Tracking
New forecast layout! Learn more

10-Day Weather Forecast

Advertisements
Track Severe Weather on mobile